Bryceland, Louisiana
Current Conditions -  °F | °C
As of 4:35 AM on Thursday 27 Nov 2014 (Local Time) from KRSN Reporting Station
Clear Clear  
Wind Chill: 37°   Ceiling: Unl
Heat Index: 43°   Visibility: 10mi
Dew Point: 32°   Wind: 12mph
Humidity: 66%   Direction: 360°N
Pressure: 30.43"   Gusts: NA
Location:  32.3029°N, 92.924°W
Report Text: KRSN 271035Z AUTO 36010KT 10SM CLR 06/00 A3043 RMK AO2 T00600001
Loading
Personal Weather Stations






























Interactive Weather Map New forecast layout! Learn more

10-Day Weather Forecast

Advertisements
Track Severe Weather on mobile